| time (UTC) | temp C | wind direction | speed KPH | gust KPH | rain 1hr cm | rain 24hr cm | rain mn cm | humidity % | barometer mb |
| 20260507151001 | 15 | 360 | 6.4 | 14.5 | 0.00 | 1.65 | 0.86 | 66 | 1005.8 |
| 20260507150500 | 15 | 327 | 4.8 | 14.5 | 0.00 | 1.65 | 0.86 | 67 | 1005.8 |
| 20260507150001 | 15 | 5 | 6.4 | 14.5 | 0.00 | 1.65 | 0.86 | 69 | 1005.8 |
| 20260507145500 | 14 | 309 | 4.8 | 12.9 | 0.00 | 1.65 | 0.86 | 66 | 1006.0 |
| 20260507144959 | 13 | 319 | 3.2 | 8.0 | 0.00 | 1.65 | 0.86 | 72 | 1005.9 |
| 20260507144459 | 14 | 329 | 3.2 | 11.3 | 0.00 | 1.65 | 0.86 | 70 | 1005.9 |
| 20260507144000 | 13 | 5 | 4.8 | 11.3 | 0.00 | 1.65 | 0.86 | 74 | 1005.8 |
| 20260507143459 | 13 | 355 | 4.8 | 9.7 | 0.00 | 1.65 | 0.86 | 72 | 1005.7 |
| 20260507143000 | 13 | 348 | 3.2 | 8.0 | 0.00 | 1.65 | 0.86 | 78 | 1005.9 |
| 20260507142459 | 13 | 350 | 3.2 | 11.3 | 0.00 | 1.65 | 0.86 | 76 | 1006.0 |
| 20260507142000 | 13 | 314 | 4.8 | 11.3 | 0.00 | 1.65 | 0.86 | 75 | 1006.0 |
| 20260507141459 | 13 | 309 | 4.8 | 11.3 | 0.00 | 1.65 | 0.86 | 74 | 1006.0 |
| 20260507141001 | 13 | 5 | 4.8 | 16.1 | 0.00 | 1.65 | 0.86 | 77 | 1006.2 |
| 20260507140500 | 12 | 360 | 4.8 | 16.1 | 0.00 | 1.65 | 0.86 | 75 | 1006.2 |
| 20260507140005 | 13 | 302 | 3.2 | 9.7 | 0.00 | 1.65 | 0.86 | 83 | 1006.2 |
| 20260507135500 | 12 | 291 | 3.2 | 11.3 | 0.03 | 1.65 | 0.86 | 80 | 1006.0 |
| 20260507135001 | 12 | 299 | 3.2 | 11.3 | 0.03 | 1.65 | 0.86 | 80 | 1006.1 |
| 20260507134459 | 12 | 303 | 1.6 | 11.3 | 0.03 | 1.65 | 0.86 | 83 | 1006.0 |
| 20260507134000 | 12 | 5 | 1.6 | 11.3 | 0.03 | 1.65 | 0.86 | 86 | 1006.0 |
| 20260507133459 | 12 | 360 | 1.6 | 11.3 | 0.03 | 1.65 | 0.86 | 87 | 1006.2 |
| 20260507133000 | 11 | 294 | 1.6 | 12.9 | 0.03 | 1.65 | 0.86 | 87 | 1006.1 |
| 20260507132500 | 12 | 229 | 1.6 | 12.9 | 0.03 | 1.65 | 0.86 | 88 | 1006.1 |
| 20260507132000 | 11 | 269 | 1.6 | 8.0 | 0.03 | 1.65 | 0.86 | 89 | 1006.2 |
| 20260507131500 | 11 | 299 | 0.0 | 8.0 | 0.03 | 1.65 | 0.86 | 90 | 1006.1 |
| 20260507131000 | 11 | 201 | 0.0 | 6.4 | 0.03 | 1.65 | 0.86 | 91 | 1006.0 |
| 20260507130459 | 10 | 255 | 0.0 | 8.0 | 0.05 | 1.65 | 0.86 | 90 | 1006.1 |
| 20260507130001 | 10 | 257 | 0.0 | 8.0 | 0.05 | 1.65 | 0.86 | 90 | 1006.2 |
| 20260507125500 | 10 | 267 | 0.0 | 3.2 | 0.03 | 1.63 | 0.84 | 91 | 1006.2 |
| 20260507124459 | 10 | 254 | 0.0 | 3.2 | 0.03 | 1.63 | 0.84 | 91 | 1006.0 |
| 20260507124001 | 10 | 254 | 0.0 | 3.2 | 0.03 | 1.63 | 0.84 | 91 | 1006.2 |
| 20260507123000 | 10 | 264 | 0.0 | 0.0 | 0.03 | 1.63 | 0.84 | 91 | 1006.6 |
| 20260507122500 | 9 | 264 | 0.0 | 1.6 | 0.05 | 1.63 | 0.84 | 91 | 1006.4 |
| 20260507122000 | 10 | 264 | 0.0 | 1.6 | 0.08 | 1.63 | 0.84 | 91 | 1006.3 |
| 20260507121500 | 9 | 264 | 0.0 | 1.6 | 0.10 | 1.63 | 0.84 | 91 | 1006.1 |
| 20260507121007 | 9 | 264 | 0.0 | 3.2 | 0.10 | 1.63 | 0.84 | 91 | 1006.1 |
| 20260507120459 | 10 | 263 | 0.0 | 3.2 | 0.08 | 1.60 | 0.81 | 91 | 1006.2 |
| 20260507120002 | 10 | 263 | 0.0 | 3.2 | 0.08 | 1.60 | 0.81 | 91 | 1006.3 |
| 20260507115459 | 9 | 309 | 0.0 | 1.6 | 0.08 | 1.60 | 0.81 | 91 | 1006.1 |
| 20260507115000 | 9 | 309 | 0.0 | 1.6 | 0.08 | 1.60 | 0.81 | 91 | 1006.3 |
| 20260507114500 | 9 | 309 | 0.0 | 1.6 | 0.10 | 1.60 | 0.81 | 91 | 1006.1 |
| 20260507114001 | 9 | 310 | 0.0 | 3.2 | 0.10 | 1.60 | 0.81 | 91 | 1006.0 |
| 20260507113500 | 9 | 310 | 0.0 | 3.2 | 0.13 | 1.60 | 0.81 | 91 | 1006.3 |
| 20260507113000 | 9 | 311 | 0.0 | 3.2 | 0.13 | 1.60 | 0.81 | 91 | 1006.1 |
| 20260507112459 | 9 | 311 | 0.0 | 6.4 | 0.10 | 1.57 | 0.79 | 91 | 1006.3 |
| 20260507111000 | 10 | 311 | 1.6 | 6.4 | 0.08 | 1.52 | 0.74 | 91 | 1005.7 |
| 20260507110459 | 10 | 301 | 1.6 | 6.4 | 0.08 | 1.52 | 0.74 | 91 | 1006.0 |
| 20260507105458 | 10 | 190 | 1.6 | 9.7 | 0.13 | 1.52 | 0.74 | 91 | 1005.7 |
| 20260507104958 | 10 | 346 | 1.6 | 9.7 | 0.13 | 1.52 | 0.74 | 91 | 1005.5 |
| 20260507104458 | 10 | 27 | 1.6 | 8.0 | 0.10 | 1.50 | 0.71 | 91 | 1005.4 |
| 20260507103959 | 10 | 319 | 0.0 | 3.2 | 0.13 | 1.50 | 0.71 | 91 | 1005.8 |
| 20260507103457 | 10 | 269 | 0.0 | 1.6 | 0.10 | 1.47 | 0.69 | 91 | 1005.8 |
| 20260507102958 | 10 | 269 | 0.0 | 8.0 | 0.10 | 1.47 | 0.69 | 91 | 1005.5 |
| 20260507102459 | 10 | 315 | 0.0 | 8.0 | 0.13 | 1.47 | 0.69 | 91 | 1005.5 |
| 20260507101958 | 10 | 281 | 0.0 | 6.4 | 0.10 | 1.45 | 0.66 | 91 | 1005.4 |
| 20260507101458 | 10 | 276 | 0.0 | 6.4 | 0.15 | 1.45 | 0.66 | 91 | 1005.5 |
| 20260507100959 | 10 | 293 | 0.0 | 3.2 | 0.20 | 1.45 | 0.66 | 91 | 1005.4 |
| 20260507100458 | 10 | 294 | 0.0 | 1.6 | 0.18 | 1.42 | 0.64 | 91 | 1005.3 |
| 20260507100005 | 10 | 293 | 0.0 | 9.7 | 0.18 | 1.40 | 0.61 | 91 | 1005.4 |
| 20260507095459 | 10 | 293 | 1.6 | 9.7 | 0.18 | 1.40 | 0.61 | 91 | 1005.4 |
| 20260507095000 | 10 | 311 | 1.6 | 6.4 | 0.18 | 1.40 | 0.61 | 91 | 1005.3 |
| 20260507094459 | 10 | 311 | 0.0 | 6.4 | 0.20 | 1.40 | 0.61 | 91 | 1005.2 |
| 20260507093459 | 11 | 355 | 0.0 | 6.4 | 0.18 | 1.37 | 0.58 | 91 | 1004.9 |
| 20260507093000 | 11 | 298 | 0.0 | 6.4 | 0.20 | 1.37 | 0.58 | 91 | 1004.9 |
| 20260507092459 | 11 | 285 | 0.0 | 1.6 | 0.23 | 1.35 | 0.56 | 91 | 1004.8 |
| 20260507092000 | 11 | 285 | 0.0 | 3.2 | 0.28 | 1.35 | 0.56 | 91 | 1004.8 |
| 20260507091458 | 11 | 285 | 0.0 | 3.2 | 0.28 | 1.30 | 0.51 | 91 | 1005.1 |
| 20260507090959 | 12 | 325 | 0.0 | 8.0 | 0.30 | 1.24 | 0.46 | 91 | 1005.4 |
| 20260507090459 | 12 | 284 | 0.0 | 8.0 | 0.41 | 1.24 | 0.46 | 91 | 1005.2 |
| 20260507090002 | 12 | 244 | 0.0 | 6.4 | 0.43 | 1.22 | 0.43 | 91 | 1004.9 |
| 20260507084959 | 12 | 5 | 0.0 | 6.4 | 0.43 | 1.22 | 0.43 | 91 | 1004.4 |
| 20260507084458 | 12 | 9 | 0.0 | 6.4 | 0.41 | 1.19 | 0.41 | 91 | 1004.5 |
| 20260507083959 | 12 | 292 | 0.0 | 1.6 | 0.41 | 1.19 | 0.41 | 91 | 1004.8 |
| 20260507083458 | 12 | 296 | 0.0 | 3.2 | 0.41 | 1.19 | 0.41 | 91 | 1005.1 |
| 20260507083010 | 12 | 300 | 0.0 | 6.4 | 0.38 | 1.17 | 0.38 | 91 | 1004.8 |
| 20260507082458 | 12 | 282 | 1.6 | 12.9 | 0.33 | 1.12 | 0.33 | 91 | 1004.7 |
| 20260507081959 | 13 | 29 | 1.6 | 12.9 | 0.25 | 1.04 | 0.25 | 91 | 1005.0 |
| 20260507081458 | 13 | 267 | 0.0 | 3.2 | 0.20 | 0.99 | 0.20 | 92 | 1004.5 |
| 20260507080958 | 13 | 219 | 0.0 | 1.6 | 0.13 | 0.91 | 0.13 | 91 | 1004.3 |
| 20260507080458 | 13 | 219 | 0.0 | 3.2 | 0.03 | 0.81 | 0.03 | 91 | 1004.6 |
| 20260507075459 | 13 | 217 | 0.0 | 0.0 | 0.00 | 0.79 | 0.00 | 91 | 1003.9 |
| 20260507074958 | 13 | 217 | 0.0 | 0.0 | 0.00 | 0.79 | 0.00 | 91 | 1003.9 |
| 20260507074459 | 13 | 217 | 0.0 | 0.0 | 0.00 | 0.79 | 0.00 | 91 | 1003.7 |
| 20260507073958 | 13 | 217 | 0.0 | 0.0 | 0.00 | 0.79 | 0.00 | 91 | 1003.8 |
| 20260507073458 | 13 | 217 | 0.0 | 3.2 | 0.00 | 0.79 | 0.00 | 91 | 1003.8 |
| 20260507072958 | 13 | 220 | 0.0 | 3.2 | 0.00 | 0.79 | 0.00 | 91 | 1003.9 |
| 20260507072458 | 13 | 227 | 0.0 | 1.6 | 0.00 | 0.79 | 0.00 | 91 | 1003.8 |
| 20260507071959 | 13 | 227 | 0.0 | 3.2 | 0.00 | 0.79 | 0.00 | 91 | 1003.8 |
| 20260507071530 | 13 | 227 | 0.0 | 3.2 | 0.00 | 0.79 | 0.00 | 91 | 1003.7 |
| 20260507070512 | 13 | 242 | 0.0 | 8.0 | 0.00 | 0.79 | 0.00 | 91 | 1003.7 |
| 20260507070009 | 13 | 178 | 0.0 | 8.0 | 0.00 | 0.79 | 0.00 | 91 | 1003.9 |
| 20260507065006 | 13 | 205 | 0.0 | 1.6 | 0.00 | 0.79 | 0.00 | 91 | 1004.1 |
| 20260507064514 | 13 | 205 | 0.0 | 8.0 | 0.00 | 0.79 | 0.00 | 91 | 1004.0 |
| 20260507064021 | 13 | 205 | 0.0 | 8.0 | 0.00 | 0.79 | 0.00 | 91 | 1003.9 |
| 20260507063028 | 13 | 200 | 1.6 | 8.0 | 0.00 | 0.79 | 0.00 | 91 | 1003.7 |
| 20260507062517 | 13 | 218 | 1.6 | 9.7 | 0.00 | 0.79 | 0.00 | 90 | 1003.8 |
| 20260507061511 | 13 | 183 | 0.0 | 9.7 | 0.00 | 0.79 | 0.00 | 90 | 1004.1 |
| 20260507061008 | 13 | 183 | 1.6 | 9.7 | 0.00 | 0.79 | 0.00 | 90 | 1004.2 |
| 20260507060514 | 13 | 183 | 3.2 | 9.7 | 0.00 | 0.79 | 0.00 | 90 | 1004.2 |
| 20260507060000 | 13 | 196 | 3.2 | 11.3 | 0.00 | 0.79 | 0.00 | 90 | 1004.3 |
| 20260507055458 | 13 | 182 | 3.2 | 11.3 | 0.00 | 0.79 | 0.00 | 90 | 1004.5 |
| 20260507055000 | 13 | 178 | 3.2 | 11.3 | 0.00 | 0.79 | 0.00 | 90 | 1004.3 |
| 20260507054458 | 13 | 180 | 3.2 | 12.9 | 0.00 | 0.79 | 0.00 | 90 | 1004.3 |
| 20260507054004 | 13 | 219 | 4.8 | 12.9 | 0.00 | 0.79 | 0.00 | 90 | 1004.5 |
| 20260507053511 | 13 | 212 | 4.8 | 14.5 | 0.00 | 0.79 | 0.00 | 90 | 1004.5 |
| 20260507053012 | 13 | 190 | 4.8 | 14.5 | 0.00 | 0.79 | 0.00 | 90 | 1004.5 |
| 20260507052500 | 13 | 196 | 4.8 | 12.9 | 0.00 | 0.79 | 0.00 | 90 | 1004.4 |
| 20260507052007 | 13 | 199 | 4.8 | 12.9 | 0.00 | 0.79 | 0.00 | 90 | 1004.7 |
| 20260507051507 | 13 | 190 | 6.4 | 12.9 | 0.00 | 0.79 | 0.00 | 90 | 1004.7 |
| 20260507051018 | 13 | 194 | 6.4 | 12.9 | 0.00 | 0.79 | 0.00 | 90 | 1004.8 |
| 20260507050007 | 13 | 188 | 4.8 | 12.9 | 0.00 | 0.79 | 0.00 | 90 | 1004.8 |
| 20260507045459 | 13 | 202 | 3.2 | 14.5 | 0.00 | 0.79 | 0.00 | 90 | 1004.9 |
| 20260507043958 | 13 | 207 | 6.4 | 22.5 | 0.00 | 0.79 | 0.00 | 90 | 1004.7 |
| 20260507043521 | 13 | 176 | 6.4 | 22.5 | 0.00 | 0.79 | 0.00 | 90 | 1004.7 |
| 20260507043010 | 13 | 207 | 6.4 | 22.5 | 0.00 | 0.79 | 0.00 | 90 | 1004.8 |
| 20260507042459 | 13 | 188 | 6.4 | 16.1 | 0.00 | 0.79 | 0.00 | 90 | 1004.7 |
| 20260507042001 | 13 | 166 | 6.4 | 24.1 | 0.00 | 0.79 | 0.00 | 90 | 1004.7 |
| 20260507041510 | 13 | 239 | 4.8 | 24.1 | 0.00 | 0.79 | 0.00 | 90 | 1004.7 |
| 20260507041023 | 13 | 209 | 6.4 | 17.7 | 0.00 | 0.79 | 0.00 | 90 | 1004.6 |
| 20260507040501 | 13 | 248 | 6.4 | 17.7 | 0.00 | 0.79 | 0.00 | 90 | 1004.7 |
| 20260507035501 | 13 | 207 | 8.0 | 24.1 | 0.00 | 0.79 | 0.79 | 90 | 1004.7 |
| 20260507035005 | 13 | 170 | 8.0 | 22.5 | 0.00 | 0.79 | 0.79 | 90 | 1004.8 |
| 20260507034018 | 13 | 200 | 8.0 | 19.3 | 0.00 | 0.79 | 0.79 | 90 | 1005.0 |
| 20260507033507 | 13 | 164 | 8.0 | 25.7 | 0.00 | 0.79 | 0.79 | 90 | 1005.0 |
| 20260507033011 | 13 | 207 | 9.7 | 30.6 | 0.00 | 0.79 | 0.79 | 90 | 1005.0 |
| 20260507032502 | 13 | 196 | 9.7 | 30.6 | 0.00 | 0.79 | 0.79 | 90 | 1004.9 |
| 20260507032009 | 13 | 266 | 9.7 | 24.1 | 0.00 | 0.79 | 0.79 | 90 | 1004.8 |
| 20260507031501 | 13 | 206 | 9.7 | 25.7 | 0.00 | 0.79 | 0.79 | 90 | 1004.7 |
| 20260507030505 | 13 | 170 | 8.0 | 25.7 | 0.00 | 0.79 | 0.79 | 90 | 1004.6 |
| 20260507030002 | 13 | 134 | 8.0 | 22.5 | 0.00 | 0.79 | 0.79 | 90 | 1004.4 |
| 20260507025532 | 13 | 197 | 9.7 | 22.5 | 0.00 | 0.79 | 0.79 | 90 | 1004.2 |
| 20260507025006 | 13 | 180 | 9.7 | 24.1 | 0.00 | 0.79 | 0.79 | 90 | 1004.3 |
| 20260507024005 | 13 | 235 | 9.7 | 25.7 | 0.00 | 0.79 | 0.79 | 90 | 1004.4 |
| 20260507023527 | 13 | 186 | 9.7 | 25.7 | 0.00 | 0.79 | 0.79 | 90 | 1004.5 |
| 20260507023009 | 13 | 180 | 6.4 | 25.7 | 0.00 | 0.79 | 0.79 | 90 | 1004.6 |
| 20260507022523 | 13 | 162 | 8.0 | 22.5 | 0.00 | 0.79 | 0.79 | 90 | 1004.7 |
| 20260507021505 | 13 | 160 | 8.0 | 20.9 | 0.00 | 0.79 | 0.79 | 90 | 1004.9 |
| 20260507021011 | 13 | 192 | 11.3 | 25.7 | 0.00 | 0.79 | 0.79 | 90 | 1005.0 |
| 20260507020503 | 13 | 172 | 11.3 | 25.7 | 0.00 | 0.79 | 0.79 | 90 | 1005.0 |
| 20260507020028 | 13 | 229 | 9.7 | 20.9 | 0.00 | 0.79 | 0.79 | 90 | 1005.1 |
| 20260507015504 | 13 | 167 | 9.7 | 24.1 | 0.00 | 0.79 | 0.79 | 90 | 1005.3 |
| 20260507015001 | 13 | 212 | 9.7 | 24.1 | 0.03 | 0.79 | 0.79 | 90 | 1005.3 |
| 20260507014516 | 13 | 163 | 9.7 | 22.5 | 0.03 | 0.79 | 0.79 | 90 | 1005.4 |
| 20260507014009 | 13 | 170 | 11.3 | 22.5 | 0.03 | 0.79 | 0.79 | 90 | 1005.5 |
| 20260507013513 | 13 | 176 | 9.7 | 22.5 | 0.03 | 0.79 | 0.79 | 90 | 1005.5 |
| 20260507013009 | 13 | 182 | 9.7 | 25.7 | 0.03 | 0.79 | 0.79 | 90 | 1005.5 |
| 20260507012505 | 13 | 175 | 9.7 | 25.7 | 0.05 | 0.79 | 0.79 | 89 | 1005.6 |
| 20260507011505 | 14 | 158 | 9.7 | 37.0 | 0.13 | 0.79 | 0.79 | 90 | 1005.5 |
| 20260507011002 | 14 | 115 | 11.3 | 37.0 | 0.13 | 0.79 | 0.79 | 90 | 1005.6 |
| 20260507010008 | 14 | 160 | 9.7 | 32.2 | 0.15 | 0.79 | 0.79 | 90 | 1005.5 |
| 20260507005510 | 14 | 227 | 9.7 | 32.2 | 0.18 | 0.79 | 0.79 | 90 | 1005.6 |
| 20260507005007 | 14 | 204 | 11.3 | 32.2 | 0.18 | 0.76 | 0.76 | 90 | 1005.4 |
| 20260507004510 | 14 | 177 | 12.9 | 40.2 | 0.20 | 0.76 | 0.76 | 89 | 1005.6 |
| 20260507004002 | 14 | 155 | 12.9 | 40.2 | 0.25 | 0.76 | 0.76 | 90 | 1005.6 |
| 20260507003500 | 14 | 161 | 11.3 | 40.2 | 0.28 | 0.76 | 0.76 | 90 | 1005.6 |
| 20260507003023 | 14 | 177 | 9.7 | 25.7 | 0.30 | 0.76 | 0.76 | 90 | 1005.6 |
| 20260507002505 | 14 | 178 | 9.7 | 24.1 | 0.30 | 0.74 | 0.74 | 90 | 1005.6 |
| 20260507002005 | 13 | 196 | 9.7 | 25.7 | 0.33 | 0.69 | 0.69 | 89 | 1005.7 |
| 20260507001004 | 13 | 200 | 11.3 | 35.4 | 0.36 | 0.64 | 0.64 | 89 | 1005.6 |
| 20260507000501 | 13 | 226 | 9.7 | 29.0 | 0.38 | 0.64 | 0.64 | 89 | 1005.6 |
| 20260506235504 | 13 | 188 | 9.7 | 20.9 | 0.43 | 0.61 | 0.61 | 89 | 1005.5 |
| 20260506234504 | 13 | 195 | 11.3 | 24.1 | 0.43 | 0.53 | 0.53 | 89 | 1005.7 |
| 20260506234004 | 13 | 161 | 9.7 | 24.1 | 0.38 | 0.48 | 0.48 | 89 | 1005.7 |
| 20260506233510 | 13 | 223 | 9.7 | 22.5 | 0.38 | 0.48 | 0.48 | 89 | 1005.5 |
| 20260506233004 | 13 | 182 | 11.3 | 41.8 | 0.38 | 0.46 | 0.46 | 89 | 1005.5 |
| 20260506232551 | 13 | 205 | 12.9 | 41.8 | 0.38 | 0.43 | 0.43 | 89 | 1005.5 |
| 20260506232003 | 13 | 178 | 14.5 | 32.2 | 0.30 | 0.36 | 0.36 | 88 | 1005.4 |
| 20260506231503 | 13 | 177 | 12.9 | 35.4 | 0.25 | 0.30 | 0.30 | 88 | 1005.6 |
| 20260506230504 | 13 | 190 | 11.3 | 32.2 | 0.20 | 0.25 | 0.25 | 88 | 1005.6 |
| 20260506230005 | 13 | 201 | 11.3 | 30.6 | 0.15 | 0.20 | 0.20 | 88 | 1005.7 |
| 20260506225522 | 13 | 96 | 11.3 | 30.6 | 0.13 | 0.18 | 0.18 | 87 | 1005.6 |
| 20260506225000 | 13 | 166 | 11.3 | 22.5 | 0.10 | 0.13 | 0.13 | 87 | 1005.6 |
| 20260506224504 | 14 | 178 | 11.3 | 22.5 | 0.08 | 0.10 | 0.10 | 87 | 1005.6 |
| 20260506224010 | 14 | 163 | 12.9 | 30.6 | 0.08 | 0.10 | 0.10 | 86 | 1005.7 |
| 20260506223507 | 14 | 195 | 12.9 | 30.6 | 0.08 | 0.10 | 0.10 | 86 | 1005.7 |
| 20260506223022 | 14 | 258 | 12.9 | 37.0 | 0.05 | 0.08 | 0.08 | 85 | 1005.9 |
| 20260506222501 | 14 | 143 | 12.9 | 38.6 | 0.03 | 0.05 | 0.05 | 85 | 1006.0 |
| 20260506222012 | 15 | 228 | 12.9 | 38.6 | 0.05 | 0.05 | 0.05 | 85 | 1006.0 |
| 20260506221512 | 15 | 148 | 11.3 | 40.2 | 0.05 | 0.05 | 0.05 | 85 | 1005.9 |
| 20260506221001 | 15 | 243 | 12.9 | 40.2 | 0.05 | 0.05 | 0.05 | 85 | 1006.0 |
| 20260506220510 | 15 | 152 | 12.9 | 38.6 | 0.05 | 0.05 | 0.05 | 84 | 1006.0 |
| 20260506220009 | 15 | 174 | 12.9 | 32.2 | 0.05 | 0.05 | 0.05 | 84 | 1006.0 |
| 20260506215500 | 15 | 212 | 11.3 | 32.2 | 0.05 | 0.05 | 0.05 | 84 | 1006.0 |
| 20260506214503 | 15 | 155 | 12.9 | 38.6 | 0.03 | 0.03 | 0.03 | 83 | 1005.9 |
| 20260506213514 | 15 | 157 | 11.3 | 29.0 | 0.03 | 0.03 | 0.03 | 83 | 1006.1 |
| 20260506213025 | 15 | 194 | 11.3 | 29.0 | 0.03 | 0.03 | 0.03 | 82 | 1006.2 |
| 20260506212510 | 15 | 122 | 12.9 | 30.6 | 0.03 | 0.03 | 0.03 | 81 | 1006.3 |
| 20260506211002 | 16 | 146 | 11.3 | 29.0 | 0.00 | 0.00 | 0.00 | 77 | 1006.3 |
| 20260506210506 | 16 | 218 | 11.3 | 32.2 | 0.00 | 0.00 | 0.00 | 76 | 1006.4 |
| 20260506205459 | 16 | 167 | 12.9 | 38.6 | 0.00 | 0.00 | 0.00 | 76 | 1006.4 |
| 20260506205009 | 16 | 167 | 12.9 | 38.6 | 0.00 | 0.00 | 0.00 | 76 | 1006.3 |
| 20260506204516 | 16 | 154 | 11.3 | 32.2 | 0.00 | 0.00 | 0.00 | 75 | 1006.5 |
| 20260506204001 | 16 | 246 | 12.9 | 32.2 | 0.00 | 0.00 | 0.00 | 75 | 1006.4 |
| 20260506203513 | 16 | 106 | 11.3 | 30.6 | 0.00 | 0.00 | 0.00 | 75 | 1006.4 |
| 20260506202514 | 16 | 144 | 12.9 | 40.2 | 0.00 | 0.00 | 0.00 | 76 | 1006.6 |
| 20260506202026 | 16 | 177 | 11.3 | 25.7 | 0.00 | 0.00 | 0.00 | 77 | 1006.6 |
| 20260506201004 | 16 | 128 | 11.3 | 30.6 | 0.00 | 0.00 | 0.00 | 77 | 1006.8 |
| 20260506200504 | 16 | 141 | 11.3 | 30.6 | 0.00 | 0.00 | 0.00 | 74 | 1006.9 |
| 20260506195504 | 16 | 188 | 12.9 | 30.6 | 0.00 | 0.00 | 0.00 | 72 | 1007.0 |
| 20260506195000 | 17 | 281 | 12.9 | 30.6 | 0.00 | 0.00 | 0.00 | 72 | 1007.1 |
| 20260506194501 | 17 | 197 | 12.9 | 30.6 | 0.00 | 0.00 | 0.00 | 72 | 1007.0 |
| 20260506194000 | 17 | 220 | 12.9 | 30.6 | 0.00 | 0.00 | 0.00 | 72 | 1007.1 |
| 20260506193002 | 17 | 173 | 12.9 | 29.0 | 0.00 | 0.00 | 0.00 | 71 | 1007.1 |
| 20260506191005 | 17 | 150 | 12.9 | 38.6 | 0.00 | 0.00 | 0.00 | 71 | 1007.1 |
| 20260506190536 | 17 | 173 | 12.9 | 38.6 | 0.00 | 0.00 | 0.00 | 71 | 1007.1 |
| 20260506190007 | 17 | 157 | 14.5 | 35.4 | 0.00 | 0.00 | 0.00 | 70 | 1007.1 |
| 20260506185517 | 17 | 178 | 14.5 | 37.0 | 0.00 | 0.00 | 0.00 | 70 | 1007.2 |
| 20260506185027 | 17 | 203 | 14.5 | 37.0 | 0.00 | 0.00 | 0.00 | 69 | 1007.2 |
| 20260506184501 | 17 | 207 | 14.5 | 32.2 | 0.00 | 0.00 | 0.00 | 70 | 1007.3 |
| 20260506184003 | 18 | 236 | 14.5 | 45.1 | 0.00 | 0.00 | 0.00 | 69 | 1007.3 |
| 20260506183459 | 18 | 143 | 11.3 | 45.1 | 0.00 | 0.00 | 0.00 | 68 | 1007.4 |
| 20260506183011 | 18 | 144 | 12.9 | 40.2 | 0.00 | 0.00 | 0.00 | 68 | 1007.4 |
| 20260506182507 | 18 | 245 | 11.3 | 40.2 | 0.00 | 0.00 | 0.00 | 68 | 1007.5 |
| 20260506182005 | 18 | 191 | 9.7 | 22.5 | 0.00 | 0.00 | 0.00 | 67 | 1007.7 |
| 20260506181002 | 18 | 195 | 11.3 | 33.8 | 0.00 | 0.00 | 0.00 | 67 | 1007.7 |
| 20260506180506 | 19 | 175 | 12.9 | 33.8 | 0.00 | 0.00 | 0.00 | 65 | 1008.0 |
| 20260506180007 | 19 | 125 | 12.9 | 37.0 | 0.00 | 0.00 | 0.00 | 65 | 1008.0 |
| 20260506175500 | 19 | 197 | 16.1 | 43.5 | 0.00 | 0.00 | 0.00 | 64 | 1008.2 |
| 20260506175001 | 20 | 172 | 17.7 | 43.5 | 0.00 | 0.00 | 0.00 | 64 | 1008.1 |
| 20260506174459 | 20 | 207 | 12.9 | 43.5 | 0.00 | 0.00 | 0.00 | 64 | 1008.2 |
| 20260506174000 | 20 | 181 | 11.3 | 37.0 | 0.00 | 0.00 | 0.00 | 64 | 1008.2 |
| 20260506172959 | 20 | 47 | 16.1 | 35.4 | 0.00 | 0.00 | 0.00 | 64 | 1008.1 |
| 20260506172500 | 19 | 142 | 17.7 | 40.2 | 0.00 | 0.00 | 0.00 | 65 | 1008.1 |
| 20260506172000 | 19 | 135 | 16.1 | 40.2 | 0.00 | 0.00 | 0.00 | 67 | 1008.2 |
| 20260506171500 | 19 | 201 | 14.5 | 35.4 | 0.00 | 0.00 | 0.00 | 65 | 1008.2 |
| 20260506171000 | 18 | 140 | 16.1 | 35.4 | 0.00 | 0.00 | 0.00 | 67 | 1008.3 |
| 20260506170500 | 19 | 159 | 12.9 | 33.8 | 0.00 | 0.00 | 0.00 | 66 | 1008.4 |
| 20260506165459 | 19 | 132 | 12.9 | 33.8 | 0.00 | 0.00 | 0.00 | 65 | 1008.7 |
| 20260506165000 | 20 | 173 | 14.5 | 37.0 | 0.00 | 0.00 | 0.00 | 66 | 1008.8 |
| 20260506164500 | 19 | 200 | 17.7 | 37.0 | 0.00 | 0.00 | 0.00 | 66 | 1008.6 |
| 20260506163500 | 20 | 251 | 12.9 | 37.0 | 0.00 | 0.00 | 0.00 | 64 | 1008.7 |
| 20260506163001 | 20 | 170 | 14.5 | 38.6 | 0.00 | 0.00 | 0.00 | 64 | 1008.9 |
| 20260506162001 | 20 | 183 | 14.5 | 40.2 | 0.00 | 0.00 | 0.00 | 63 | 1009.0 |
| 20260506161500 | 20 | 186 | 14.5 | 40.2 | 0.00 | 0.00 | 0.00 | 63 | 1009.2 |
| 20260506161000 | 20 | 205 | 14.5 | 40.2 | 0.00 | 0.00 | 0.00 | 61 | 1009.0 |
| 20260506160459 | 21 | 227 | 14.5 | 40.2 | 0.00 | 0.00 | 0.00 | 62 | 1009.0 |
| 20260506160001 | 20 | 234 | 12.9 | 38.6 | 0.00 | 0.00 | 0.00 | 63 | 1009.0 |
| 20260506155459 | 21 | 171 | 14.5 | 41.8 | 0.00 | 0.00 | 0.00 | 63 | 1009.2 |
| 20260506154459 | 20 | 109 | 14.5 | 45.1 | 0.00 | 0.00 | 0.00 | 63 | 1009.4 |
| 20260506154010 | 20 | 148 | 14.5 | 45.1 | 0.00 | 0.00 | 0.00 | 63 | 1009.4 |
| 20260506153507 | 20 | 201 | 14.5 | 38.6 | 0.00 | 0.00 | 0.00 | 63 | 1009.4 |
| 20260506153000 | 19 | 192 | 16.1 | 45.1 | 0.00 | 0.00 | 0.00 | 65 | 1009.7 |
| 20260506152500 | 20 | 173 | 16.1 | 45.1 | 0.00 | 0.00 | 0.00 | 66 | 1009.7 |
| 20260506152001 | 19 | 203 | 14.5 | 37.0 | 0.00 | 0.00 | 0.00 | 66 | 1009.6 |